createdAt,value
2022-07-29T00:00:24.315Z,99656.94
2022-07-29T00:04:28.068Z,99643.78
2022-07-29T00:08:45.026Z,99643.16
2022-07-29T00:13:03.661Z,99649.72
2022-07-29T00:17:25.185Z,99649.03
2022-07-29T00:21:47.467Z,99652.97
2022-07-29T00:26:03.526Z,99656.78
2022-07-29T00:30:33.562Z,99648.72
2022-07-29T00:34:59.770Z,99642.72
2022-07-29T00:39:24.250Z,99637.94
2022-07-29T00:43:39.896Z,99624.06
2022-07-29T00:47:56.541Z,99627.31
2022-07-29T00:52:27.977Z,99618.06
2022-07-29T00:56:57.752Z,99632.66
2022-07-29T01:01:02.219Z,99630.03
2022-07-29T01:05:14.128Z,99625.66
2022-07-29T01:09:42.775Z,99624.09
2022-07-29T01:14:13.761Z,99631.44
2022-07-29T01:18:35.559Z,99627.06
2022-07-29T01:23:11.195Z,99624.69
2022-07-29T01:27:55.076Z,99618.59
2022-07-29T01:32:22.579Z,99625.03
2022-07-29T01:36:46.349Z,99628.03
2022-07-29T01:41:05.621Z,99633.75
2022-07-29T01:45:20.702Z,99631.38
2022-07-29T01:49:32.312Z,99633.25
2022-07-29T01:53:44.637Z,99641.53
2022-07-29T01:57:51.009Z,99636.25
2022-07-29T02:02:03.827Z,99642.69
2022-07-29T02:06:21.530Z,99633.03
2022-07-29T02:10:39.200Z,99631.50
2022-07-29T02:14:54.980Z,99626.28
2022-07-29T02:19:17.219Z,99630.06
2022-07-29T02:23:29.953Z,99628.66
2022-07-29T02:27:37.036Z,99625.13
2022-07-29T02:31:56.302Z,99620.69
2022-07-29T02:36:07.721Z,99616.44
2022-07-29T02:40:33.167Z,99614.81
2022-07-29T02:44:45.007Z,99630.09
2022-07-29T02:49:07.464Z,99628.50
2022-07-29T02:53:36.691Z,99629.47
2022-07-29T02:57:55.172Z,99619.84
2022-07-29T03:02:16.386Z,99620.22
2022-07-29T03:06:38.318Z,99621.19
2022-07-29T03:10:46.826Z,99621.25
2022-07-29T03:14:56.132Z,99629.28
2022-07-29T03:19:01.102Z,99624.97
2022-07-29T03:23:05.797Z,99618.78
2022-07-29T03:27:09.409Z,99620.59
2022-07-29T03:31:14.745Z,99624.34
2022-07-29T03:35:19.293Z,99610.16
2022-07-29T03:39:27.506Z,99616.47
2022-07-29T03:43:35.242Z,99622.97
2022-07-29T03:47:50.809Z,99612.50
2022-07-29T03:51:56.035Z,99619.75
2022-07-29T03:56:04.538Z,99622.34
2022-07-29T04:00:15.603Z,99617.00
2022-07-29T04:04:29.538Z,99624.13
2022-07-29T04:08:37.500Z,99629.47
2022-07-29T04:12:48.003Z,99618.94
2022-07-29T04:17:06.985Z,99630.44
2022-07-29T04:21:58.609Z,99627.84
2022-07-29T04:26:27.392Z,99626.84
2022-07-29T04:30:35.425Z,99633.06
2022-07-29T04:34:45.041Z,99626.84
2022-07-29T04:38:56.619Z,99640.09
2022-07-29T04:43:04.516Z,99642.63
2022-07-29T04:47:13.659Z,99645.25
2022-07-29T04:51:25.653Z,99652.22
2022-07-29T04:55:43.273Z,99645.84
2022-07-29T04:59:54.280Z,99654.59
2022-07-29T05:04:40.846Z,99653.53
2022-07-29T05:08:52.848Z,99656.88
2022-07-29T05:13:19.337Z,99658.50
2022-07-29T05:17:27.756Z,99655.41
2022-07-29T05:21:41.434Z,99660.50
2022-07-29T05:26:14.553Z,99665.31
2022-07-29T05:30:38.204Z,99665.56
2022-07-29T05:34:50.772Z,99655.88
2022-07-29T05:39:02.697Z,99655.19
2022-07-29T05:43:14.238Z,99660.41
2022-07-29T05:48:13.343Z,99663.03
2022-07-29T05:52:22.907Z,99674.41
2022-07-29T05:56:34.574Z,99667.97
2022-07-29T06:00:45.392Z,99676.53
2022-07-29T06:05:02.289Z,99678.09
2022-07-29T06:09:12.239Z,99666.53
2022-07-29T06:13:22.388Z,99664.25
2022-07-29T06:18:00.035Z,99676.63
2022-07-29T06:22:15.942Z,99672.16
2022-07-29T06:26:31.306Z,99672.41
2022-07-29T06:30:37.165Z,99672.31
2022-07-29T06:34:40.950Z,99670.72
2022-07-29T06:38:50.482Z,99676.25
2022-07-29T06:42:57.359Z,99690.63
2022-07-29T06:47:00.440Z,99682.97
2022-07-29T06:51:05.001Z,99688.38
2022-07-29T06:55:09.607Z,99679.75
2022-07-29T06:59:14.595Z,99673.59
2022-07-29T07:03:18.876Z,99680.06
2022-07-29T07:07:22.268Z,99683.81
2022-07-29T07:11:25.720Z,99680.44
2022-07-29T07:15:39.634Z,99693.25
2022-07-29T07:19:43.827Z,99700.38
2022-07-29T07:23:48.164Z,99695.75
2022-07-29T07:28:02.681Z,99690.25
2022-07-29T07:32:09.605Z,99694.97
2022-07-29T07:41:16.894Z,99700.19
2022-07-29T07:45:21.379Z,99703.66
2022-07-29T07:49:26.175Z,99699.78
2022-07-29T07:53:30.768Z,99699.44
2022-07-29T07:57:33.955Z,99707.91
2022-07-29T08:01:48.089Z,99710.03
2022-07-29T08:06:01.271Z,99716.22
2022-07-29T08:10:06.070Z,99711.66
2022-07-29T08:14:09.609Z,99713.66
2022-07-29T08:18:17.116Z,99722.63
2022-07-29T08:22:22.216Z,99714.25
2022-07-29T08:26:25.569Z,99717.00
2022-07-29T08:30:29.055Z,99718.97
2022-07-29T08:34:33.043Z,99720.19
2022-07-29T08:38:37.607Z,99711.97
2022-07-29T08:42:40.940Z,99713.25
2022-07-29T08:46:44.622Z,99708.69
2022-07-29T08:50:49.407Z,99712.81
2022-07-29T08:54:55.008Z,99709.78
2022-07-29T08:59:00.588Z,99708.47
2022-07-29T09:03:10.164Z,99701.63
2022-07-29T09:07:17.523Z,99707.44
2022-07-29T09:11:22.584Z,99708.41
2022-07-29T09:15:25.889Z,99714.78
2022-07-29T09:19:31.140Z,99703.59
2022-07-29T09:23:34.366Z,99706.13
2022-07-29T09:27:38.901Z,99692.75
2022-07-29T09:31:45.317Z,99690.19
2022-07-29T09:35:56.428Z,99694.91
2022-07-29T09:40:00.423Z,99689.88
2022-07-29T09:44:06.854Z,99683.97
2022-07-29T09:48:17.653Z,99687.28
2022-07-29T09:52:21.128Z,99684.22
2022-07-29T09:56:41.370Z,99691.63
2022-07-29T10:00:46.768Z,99673.84
2022-07-29T10:04:50.002Z,99684.72
2022-07-29T10:08:53.394Z,99671.03
2022-07-29T10:13:01.754Z,99671.41
2022-07-29T10:17:12.527Z,99669.66
2022-07-29T10:21:35.022Z,99665.34
2022-07-29T10:25:38.737Z,99671.63
2022-07-29T10:29:41.691Z,99669.03
2022-07-29T10:33:57.930Z,99676.31
2022-07-29T10:38:21.535Z,99664.50
2022-07-29T10:42:34.586Z,99661.81
2022-07-29T10:46:39.893Z,99649.81
2022-07-29T10:51:03.989Z,99654.03
2022-07-29T10:55:08.216Z,99652.06
2022-07-29T10:59:36.470Z,99644.75
2022-07-29T11:03:49.369Z,99647.50
2022-07-29T11:08:26.145Z,99644.47
2022-07-29T11:12:48.918Z,99633.63
2022-07-29T11:17:06.490Z,99634.22
2022-07-29T11:21:53.760Z,99631.41
2022-07-29T11:30:52.450Z,99632.88
2022-07-29T11:35:37.017Z,99629.44
2022-07-29T11:39:42.990Z,99618.81
2022-07-29T11:43:52.718Z,99619.06
2022-07-29T11:48:27.527Z,99616.34
2022-07-29T11:52:23.638Z,99619.56
2022-07-29T11:56:32.355Z,99613.50
2022-07-29T12:00:41.456Z,99603.75
2022-07-29T12:04:51.209Z,99591.81
2022-07-29T12:08:55.133Z,99593.31
2022-07-29T12:12:58.283Z,99587.97
2022-07-29T12:17:03.212Z,99585.72
2022-07-29T12:21:12.353Z,99581.97
2022-07-29T12:25:32.321Z,99586.41
2022-07-29T12:29:36.182Z,99578.72
2022-07-29T12:33:40.600Z,99578.03
2022-07-29T12:37:45.249Z,99573.22
2022-07-29T12:41:48.736Z,99574.16
2022-07-29T12:45:54.368Z,99572.34
2022-07-29T12:50:12.419Z,99563.13
2022-07-29T12:54:16.814Z,99561.44
2022-07-29T12:58:35.535Z,99562.75
2022-07-29T13:02:39.670Z,99556.44
2022-07-29T13:06:50.963Z,99559.31
2022-07-29T13:10:54.337Z,99566.38
2022-07-29T13:14:57.437Z,99553.31
2022-07-29T13:19:11.946Z,99556.94
2022-07-29T13:23:17.591Z,99549.19
2022-07-29T13:27:22.269Z,99544.50
2022-07-29T13:31:25.359Z,99542.56
2022-07-29T13:35:30.805Z,99538.09
2022-07-29T13:39:35.092Z,99545.25
2022-07-29T13:43:38.175Z,99543.66
2022-07-29T13:47:46.016Z,99543.78
2022-07-29T13:51:52.412Z,99552.19
2022-07-29T13:55:57.280Z,99554.03
2022-07-29T14:00:00.545Z,99560.31
2022-07-29T14:04:04.179Z,99558.06
2022-07-29T14:08:07.303Z,99561.22
2022-07-29T14:12:12.300Z,99569.78
2022-07-29T14:16:16.047Z,99582.22
2022-07-29T14:20:19.583Z,99599.47
2022-07-29T14:24:27.030Z,99612.06
2022-07-29T14:29:04.438Z,99621.22
2022-07-29T14:33:15.163Z,99637.00
2022-07-29T14:37:27.537Z,99644.75
2022-07-29T14:41:31.894Z,99657.41
2022-07-29T14:45:38.475Z,99657.50
2022-07-29T14:49:43.375Z,99654.97
2022-07-29T14:53:50.192Z,99644.44
2022-07-29T14:58:50.202Z,99625.75
2022-07-29T15:03:02.587Z,99608.22
2022-07-29T15:07:15.975Z,99599.56
2022-07-29T15:16:53.374Z,99587.63
2022-07-29T15:20:57.776Z,99573.19
2022-07-29T15:25:00.903Z,99575.31
2022-07-29T15:29:04.130Z,99569.44
2022-07-29T15:33:07.332Z,99554.53
2022-07-29T15:37:12.531Z,99553.38
2022-07-29T15:41:16.544Z,99544.72
2022-07-29T15:45:19.804Z,99531.59
2022-07-29T15:49:23.029Z,99527.38
2022-07-29T15:53:27.589Z,99520.94
2022-07-29T15:57:30.848Z,99518.34
2022-07-29T16:01:34.103Z,99507.72
2022-07-29T16:05:37.205Z,99513.28
2022-07-29T16:09:42.481Z,99504.34
2022-07-29T16:13:45.484Z,99502.78
2022-07-29T16:17:50.410Z,99503.88
2022-07-29T16:21:55.923Z,99513.88
2022-07-29T16:26:04.221Z,99525.81
2022-07-29T16:30:09.659Z,99523.34
2022-07-29T16:34:13.056Z,99517.28
2022-07-29T16:38:16.664Z,99514.44
2022-07-29T16:42:37.058Z,99514.44
2022-07-29T16:46:45.660Z,99506.28
2022-07-29T16:50:48.957Z,99515.34
2022-07-29T16:54:51.955Z,99513.50
2022-07-29T16:58:58.573Z,99524.94
2022-07-29T17:03:01.783Z,99505.13
2022-07-29T17:07:05.076Z,99497.13
2022-07-29T17:11:08.262Z,99490.75
2022-07-29T17:15:13.760Z,99506.09
2022-07-29T17:19:16.961Z,99517.72
2022-07-29T17:23:19.998Z,99516.97
2022-07-29T17:27:23.981Z,99521.78
2022-07-29T17:31:28.737Z,99515.63
2022-07-29T17:35:49.184Z,99501.38
2022-07-29T17:39:52.118Z,99498.88
2022-07-29T17:43:55.907Z,99501.66
2022-07-29T17:48:00.487Z,99497.16
2022-07-29T17:52:03.691Z,99502.41
2022-07-29T17:56:07.315Z,99503.59
2022-07-29T18:00:11.103Z,99512.63
2022-07-29T18:04:20.150Z,99502.72
2022-07-29T18:08:23.401Z,99501.97
2022-07-29T18:12:26.677Z,99490.59
2022-07-29T18:16:29.782Z,99505.38
2022-07-29T18:20:34.633Z,99493.25
2022-07-29T18:24:38.459Z,99504.13
2022-07-29T18:28:41.666Z,99505.97
2022-07-29T18:32:59.216Z,99515.97
2022-07-29T18:37:09.366Z,99525.38
2022-07-29T18:41:12.507Z,99530.94
2022-07-29T18:45:19.463Z,99532.09
2022-07-29T18:49:23.537Z,99526.88
2022-07-29T18:53:28.079Z,99535.13
2022-07-29T18:57:54.477Z,99527.22
2022-07-29T19:01:54.459Z,99521.16
2022-07-29T19:05:57.867Z,99523.34
2022-07-29T19:10:03.045Z,99521.06
2022-07-29T19:14:08.224Z,99507.94
2022-07-29T19:18:13.246Z,99513.53
2022-07-29T19:22:16.700Z,99530.78
2022-07-29T19:26:21.515Z,99526.47
2022-07-29T19:30:24.893Z,99520.41
2022-07-29T19:34:28.161Z,99525.97
2022-07-29T19:38:31.749Z,99533.25
2022-07-29T19:42:36.169Z,99529.97
2022-07-29T19:46:39.594Z,99540.13
2022-07-29T19:50:42.913Z,99548.38
2022-07-29T19:54:47.202Z,99546.78
2022-07-29T19:58:51.644Z,99555.13
2022-07-29T20:02:57.157Z,99552.69
2022-07-29T20:07:01.716Z,99551.13
2022-07-29T20:11:05.159Z,99553.03
2022-07-29T20:15:16.187Z,99556.75
2022-07-29T20:19:19.466Z,99558.06
2022-07-29T20:23:23.444Z,99565.59
2022-07-29T20:27:26.650Z,99572.19
2022-07-29T20:31:32.089Z,99559.81
2022-07-29T20:35:35.421Z,99565.34
2022-07-29T20:39:39.103Z,99562.91
2022-07-29T20:43:42.103Z,99560.44
2022-07-29T20:47:46.511Z,99558.13
2022-07-29T20:51:49.476Z,99561.94
2022-07-29T20:55:52.515Z,99558.44
2022-07-29T20:59:55.548Z,99555.75
2022-07-29T21:04:00.216Z,99556.72
2022-07-29T21:08:03.477Z,99556.78
2022-07-29T21:12:07.489Z,99546.19
2022-07-29T21:16:14.953Z,99545.31
2022-07-29T21:20:20.755Z,99538.34
2022-07-29T21:24:23.987Z,99542.00
2022-07-29T21:28:35.627Z,99529.50
2022-07-29T21:32:38.889Z,99526.06
2022-07-29T21:36:48.327Z,99533.34
2022-07-29T21:40:52.991Z,99527.25
2022-07-29T21:44:56.076Z,99530.97
2022-07-29T21:48:59.254Z,99527.50
2022-07-29T21:53:04.262Z,99524.09
2022-07-29T21:57:07.849Z,99528.78
2022-07-29T22:01:11.370Z,99531.63
2022-07-29T22:05:15.495Z,99526.31
2022-07-29T22:09:20.030Z,99523.72
2022-07-29T22:13:23.129Z,99519.41
2022-07-29T22:17:26.367Z,99515.06
2022-07-29T22:21:29.383Z,99514.25
2022-07-29T22:25:33.919Z,99526.91
2022-07-29T22:29:37.101Z,99527.06
2022-07-29T22:33:40.257Z,99521.75
2022-07-29T22:37:43.370Z,99516.72
2022-07-29T22:41:47.899Z,99522.34
2022-07-29T22:45:50.927Z,99513.56
2022-07-29T22:49:54.080Z,99532.63
2022-07-29T22:53:57.104Z,99525.66
2022-07-29T22:58:01.610Z,99524.09
2022-07-29T23:02:04.920Z,99521.44
2022-07-29T23:06:08.322Z,99529.72
2022-07-29T23:10:11.906Z,99523.72
2022-07-29T23:14:16.438Z,99525.63
2022-07-29T23:18:19.701Z,99519.47
2022-07-29T23:22:22.968Z,99530.38
2022-07-29T23:26:26.314Z,99532.25
2022-07-29T23:30:31.088Z,99532.41
2022-07-29T23:34:34.162Z,99537.91
2022-07-29T23:38:40.868Z,99556.06
2022-07-29T23:42:44.449Z,99571.50
2022-07-29T23:46:48.909Z,99594.22
2022-07-29T23:50:51.903Z,99585.69
2022-07-29T23:54:55.117Z,99578.88
2022-07-29T23:59:18.089Z,99585.34
